Latest Weather Observations for Kingscote

IDS60801

Issued at 1:35 pm CDT Saturday 25 October 2014 (issued every 30 minutes, with the page automatically refreshed every 10 minutes)

About weather observations | Map of weather stations | Latest weather observations for SA | Other Formats
Station Details ID: 022841 Name: KINGSCOTE AERO Lat: -35.71 Lon: 137.52 Height: 6.23 m
Data from the previous 72 hours. | See also: Recent months at Kingscote
Date/Time
CDT
Temp
°C
App
Temp
°C
Dew
Point
Rel
Hum
%
Delta-T
°C
Wind Press
QNH
hPa
Press
MSL
hPa
Rain
since 9 am
mm
Dir
 
Spd
km/h
Gust
km/h
Spd
kts
Gust
kts
25/01:30pm 22.9 21.3 12.8 53 5.8 N 13 24 7 13 1016.4 1016.4 0.0
25/01:00pm 22.2 21.5 11.9 52 5.8 S 7 11 4 6 1016.6 1016.6 0.0
25/12:30pm 21.5 20.5 12.4 56 5.1 ESE 9 20 5 11 1016.9 1016.9 0.0
25/12:00pm 21.2 19.5 12.3 57 5.0 S 13 20 7 11 1017.4 1017.4 0.0
25/11:30am 20.6 19.2 12.1 58 4.7 S 11 17 6 9 1017.6 1017.6 0.0
25/11:00am 19.6 18.3 12.4 63 4.0 SSW 11 22 6 12 1017.8 1017.8 0.0
25/10:30am 19.5 18.3 12.7 65 3.8 S 11 19 6 10 1017.8 1017.8 0.0
25/10:00am 18.9 18.7 12.9 68 3.4 SE 6 13 3 7 1018.1 1018.1 0.0
25/09:30am 17.0 16.3 11.9 72 2.8 S 7 13 4 7 1018.3 1018.3 0.0
25/09:00am 16.1 15.0 12.1 77 2.2 SSW 9 13 5 7 1018.4 1018.4 0.0
25/08:30am 15.8 14.7 12.0 78 2.1 SSE 9 15 5 8 1018.4 1018.4 0.0
25/08:00am 15.5 13.6 11.9 79 2.0 SE 13 15 7 8 1018.3 1018.3 0.0
25/07:30am 14.9 13.8 11.9 82 1.6 SSE 9 13 5 7 1018.1 1018.1 0.0
25/07:00am 14.8 13.7 12.1 84 1.5 SSE 9 13 5 7 1017.5 1017.5 0.0
25/06:30am 14.6 12.7 11.7 83 1.6 SE 13 17 7 9 1017.3 1017.3 0.0
25/06:00am 14.6 13.9 12.1 85 1.4 SSE 7 13 4 7 1016.9 1016.9 0.0
25/05:30am 14.7 13.2 12.0 84 1.5 SSE 11 17 6 9 1016.8 1016.8 0.0
25/05:00am 14.7 12.0 11.8 83 1.6 SE 17 20 9 11 1016.5 1016.5 0.0
25/04:30am 14.9 12.8 12.4 85 1.4 SSE 15 20 8 11 1016.3 1016.3 0.0
25/04:00am 14.8 12.2 12.1 84 1.5 SE 17 24 9 13 1016.1 1016.1 0.0
25/03:30am 14.9 11.9 12.4 85 1.4 ESE 20 24 11 13 1016.0 1016.0 0.0
25/03:00am 14.8 13.2 12.7 87 1.2 SE 13 17 7 9 1015.9 1015.9 0.0
25/02:30am 14.4 12.4 12.8 90 0.9 SSE 15 20 8 11 1015.9 1015.9 0.0
25/02:00am 13.9 13.2 13.1 95 0.4 SSE 9 15 5 8 1016.1 1016.1 0.0
25/01:30am 13.4 12.6 12.8 96 0.3 S 9 13 5 7 1016.3 1016.3 0.0
25/01:00am 12.3 11.1 11.7 96 0.3 S 9 13 5 7 1016.5 1016.5 0.0
25/12:32am 12.0 10.4 11.4 96 0.3 S 11 11 6 6 1016.7 1016.7 0.0
25/12:30am 11.8 10.1 11.2 96 0.3 S 11 11 6 6 1016.7 1016.7 0.0
25/12:00am 11.9 10.2 11.1 95 0.4 S 11 13 6 7 1017.0 1017.0 0.0
 
Date/Time
CDT
Temp
°C
App
Temp
°C
Dew
Point
Rel
Hum
%
Delta-T
°C
Wind Press
QNH
hPa
Press
MSL
hPa
Rain
since 9 am
mm
Dir
 
Spd
km/h
Gust
km/h
Spd
kts
Gust
kts
24/11:30pm 12.5 11.3 11.6 94 0.5 S 9 13 5 7 1017.1 1017.1 0.0
24/11:00pm 12.9 11.4 12.0 94 0.5 S 11 13 6 7 1017.1 1017.1 0.0
24/10:30pm 13.3 11.9 12.2 93 0.6 S 11 13 6 7 1016.8 1016.8 0.0
24/10:00pm 13.9 11.5 12.6 92 0.7 SSW 17 19 9 10 1016.7 1016.7 0.0
24/09:30pm 14.2 12.5 12.6 90 0.9 SSW 13 17 7 9 1016.5 1016.5 0.0
24/09:00pm 14.2 12.9 12.4 89 1.0 SSW 11 13 6 7 1016.3 1016.3 0.0
24/08:30pm 14.6 13.2 12.3 86 1.2 S 11 15 6 8 1015.8 1015.8 0.0
24/08:00pm 15.4 13.4 12.7 84 1.5 S 15 20 8 11 1015.6 1015.6 0.0
24/07:30pm 16.5 14.2 13.0 80 1.9 SSW 17 24 9 13 1015.2 1015.2 0.0
24/07:00pm 17.7 14.8 13.0 74 2.6 S 20 30 11 16 1014.9 1014.9 0.0
24/06:30pm 18.7 15.6 13.3 71 3.1 SSW 22 30 12 16 1014.4 1014.4 0.0
24/06:00pm 19.8 16.0 13.5 67 3.6 S 26 32 14 17 1013.9 1013.9 0.0
24/05:30pm 21.1 17.2 13.3 61 4.5 S 26 32 14 17 1014.0 1014.0 0.0
24/05:00pm 23.2 20.2 14.7 58 5.0 S 24 32 13 17 1013.6 1013.6 0.0
24/04:30pm 23.6 21.3 14.6 57 5.3 S 20 28 11 15 1013.4 1013.4 0.0
24/04:00pm 21.3 19.8 15.4 69 3.5 SE 17 20 9 11 1012.7 1012.7 0.0
24/03:30pm 25.4 23.5 14.2 50 6.6 E 17 26 9 14 1013.0 1013.0 0.0
24/03:00pm 25.9 24.1 15.6 53 6.3 E 19 26 10 14 1013.3 1013.3 0.0
24/02:30pm 25.7 23.5 14.5 50 6.7 ESE 19 24 10 13 1013.3 1013.3 0.0
24/02:00pm 26.1 24.7 16.6 55 5.9 E 19 24 10 13 1013.3 1013.3 0.0
24/01:30pm 25.3 21.1 15.6 55 5.9 SSE 32 57 17 31 1013.2 1013.2 0.0
24/01:28pm 25.3 19.5 15.0 53 6.2 SSE 39 57 21 31 1013.2 1013.2 0.0
24/01:00pm 27.7 26.1 12.9 40 8.7 WNW 13 20 7 11 1013.2 1013.2 0.0
24/12:30pm 27.9 24.8 8.7 30 10.5 NW 15 22 8 12 1013.2 1013.2 0.0
24/12:00pm 27.5 24.4 8.9 31 10.2 WNW 15 28 8 15 1013.3 1013.3 0.0
24/11:30am 25.1 23.4 13.6 49 6.7 NNE 15 20 8 11 1013.9 1013.9 0.0
24/11:00am 23.7 21.9 13.3 52 6.0 N 15 20 8 11 1014.1 1014.1 0.0
24/10:30am 22.7 20.6 13.7 56 5.2 N 17 24 9 13 1014.3 1014.3 0.0
24/10:00am 21.4 19.8 12.8 58 4.9 N 13 20 7 11 1014.4 1014.4 0.0
24/09:30am 20.5 18.7 13.2 63 4.2 N 15 20 8 11 1014.5 1014.5 0.0
24/09:00am 18.9 18.6 14.4 75 2.6 N 9 13 5 7 1014.4 1014.4 0.0
24/08:30am 15.8 16.0 14.2 90 0.9 N 6 13 3 7 1014.2 1014.2 0.0
24/08:00am 12.7 13.4 12.2 97 0.3 CALM 0 0 0 0 1013.9 1013.9 0.0
24/07:30am 9.1 8.8 8.5 96 0.3 CALM 0 0 0 0 1013.7 1013.7 0.0
24/07:00am 8.5 8.0 7.9 96 0.3 CALM 0 0 0 0 1013.7 1013.7 0.0
24/06:30am 9.1 8.8 8.6 97 0.2 CALM 0 0 0 0 1013.3 1013.3 0.0
24/06:09am 8.4 6.6 7.8 96 0.3 W 7 11 4 6 1013.1 1013.1 0.0
24/06:00am 8.6 6.9 8.2 97 0.2 W 7 11 4 6 1013.3 1013.3 0.0
24/05:50am 8.6 6.8 8.0 96 0.3 W 7 11 4 6 1013.1 1013.1 0.0
24/05:35am 9.0 6.9 8.4 96 0.3 WNW 9 11 5 6 1012.7 1012.7 0.0
24/05:30am 9.1 7.1 8.5 96 0.3 WNW 9 11 5 6 1012.8 1012.8 0.0
24/05:12am 9.3 7.9 8.7 96 0.3 NW 6 7 3 4 1012.5 1012.5 0.0
24/05:00am 9.2 7.6 8.6 96 0.3 NW 7 11 4 6 1012.7 1012.7 0.0
24/04:56am 9.3 7.3 8.7 96 0.3 NW 9 11 5 6 1012.6 1012.6 0.0
24/04:35am 8.4 7.8 7.5 94 0.4 CALM 0 0 0 0 1012.2 1012.2 0.0
24/04:30am 8.7 8.2 7.9 95 0.4 CALM 0 0 0 0 1011.9 1011.9 0.0
24/04:00am 8.9 8.4 7.8 93 0.5 CALM 0 0 0 0 1012.2 1012.2 0.0
24/03:51am 9.0 8.4 7.6 91 0.7 CALM 0 0 0 0 1012.1 1012.1 0.0
24/03:30am 10.6 10.5 9.4 92 0.6 CALM 0 0 0 0 1012.2 1012.2 0.0
24/03:00am 11.6 11.7 10.2 91 0.7 CALM 0 0 0 0 1012.6 1012.6 0.0
24/02:58am 11.7 11.8 10.3 91 0.7 CALM 0 0 0 0 1012.7 1012.7 0.0
24/02:30am 12.2 12.5 10.8 91 0.7 CALM 0 0 0 0 1013.6 1013.6 0.0
24/02:00am 12.2 12.5 10.9 92 0.7 CALM 0 0 0 0 1014.1 1014.1 0.0
24/01:30am 11.9 12.1 10.6 92 0.7 CALM 0 0 0 0 1014.2 1014.2 0.0
24/01:00am 12.2 11.3 10.6 90 0.8 SSW 6 9 3 5 1014.6 1014.6 0.0
24/12:30am 12.9 11.5 11.0 88 1.0 SE 9 15 5 8 1014.7 1014.7 0.0
24/12:00am 13.4 12.5 11.5 88 1.0 SSE 7 9 4 5 1015.4 1015.4 0.0
 
Date/Time
CDT
Temp
°C
App
Temp
°C
Dew
Point
Rel
Hum
%
Delta-T
°C
Wind Press
QNH
hPa
Press
MSL
hPa
Rain
since 9 am
mm
Dir
 
Spd
km/h
Gust
km/h
Spd
kts
Gust
kts
23/11:30pm 13.4 11.8 11.5 88 1.0 S 11 15 6 8 1015.5 1015.5 0.0
23/11:00pm 13.4 12.1 11.3 87 1.1 S 9 13 5 7 1016.0 1016.0 0.0
23/10:30pm 13.4 12.7 11.5 88 1.0 SSW 6 7 3 4 1016.4 1016.4 0.0
23/10:00pm 13.2 11.2 11.6 90 0.9 SSE 13 17 7 9 1016.2 1016.2 0.0
23/09:30pm 12.3 12.6 10.9 91 0.7 CALM 0 0 0 0 1016.0 1016.0 0.0
23/09:00pm 12.0 10.8 10.4 90 0.8 S 7 9 4 5 1016.0 1016.0 0.0
23/08:55pm 12.0 10.8 10.4 90 0.8 S 7 9 4 5 1015.9 1015.9 0.0
23/08:30pm 12.4 10.9 10.5 88 1.0 SSE 9 11 5 6 1016.0 1016.0 0.0
23/08:00pm 13.3 11.5 11.0 86 1.2 SSE 11 13 6 7 1016.1 1016.1 0.0
23/07:30pm 14.2 12.1 11.2 82 1.6 SSE 13 17 7 9 1015.9 1015.9 0.0
23/07:00pm 15.7 13.4 11.7 77 2.2 SE 15 20 8 11 1015.9 1015.9 0.0
23/06:30pm 16.3 13.3 11.9 75 2.4 SSE 19 24 10 13 1015.6 1015.6 0.0
23/06:00pm 16.7 13.9 11.4 71 2.9 SSE 17 24 9 13 1015.8 1015.8 0.0
23/05:30pm 17.5 14.6 12.2 71 2.9 SSE 19 26 10 14 1015.6 1015.6 0.0
23/05:00pm 17.8 14.2 11.8 68 3.3 SSE 22 28 12 15 1015.5 1015.5 0.0
23/04:30pm 18.4 15.3 11.7 65 3.7 SSE 19 24 10 13 1015.6 1015.6 0.0
23/04:00pm 18.5 15.3 12.0 66 3.6 SSE 20 28 11 15 1015.7 1015.7 0.0
23/03:30pm 19.3 15.8 12.1 63 4.0 SSE 22 30 12 16 1016.0 1016.0 0.0
23/03:00pm 19.0 15.4 11.8 63 4.0 SSE 22 28 12 15 1016.4 1016.4 0.0
23/02:30pm 18.8 15.7 12.1 65 3.7 SE 20 24 11 13 1016.5 1016.5 0.0
23/02:00pm 19.8 16.5 12.8 64 3.9 SSE 22 32 12 17 1016.9 1016.9 0.0
23/01:30pm 18.2 15.2 12.4 69 3.2 SE 20 28 11 15 1017.1 1017.1 0.0
23/01:00pm 17.5 14.0 12.2 71 2.9 SE 22 28 12 15 1017.4 1017.4 0.0
23/12:30pm 16.8 12.7 11.5 71 2.9 SSE 24 32 13 17 1017.9 1017.9 0.0
23/12:00pm 17.5 13.7 12.4 72 2.8 SSE 24 32 13 17 1018.2 1018.2 0.0
23/11:30am 17.0 13.0 11.9 72 2.8 SE 24 32 13 17 1018.4 1018.4 0.0
23/11:00am 17.2 13.4 12.5 74 2.6 SE 24 33 13 18 1018.6 1018.6 0.0
23/10:30am 16.7 12.9 12.3 75 2.4 SE 24 32 13 17 1018.9 1018.9 0.0
23/10:27am 16.0 11.9 11.6 75 2.4 SE 24 32 13 17 1018.9 1018.9 0.0
23/10:00am 15.6 11.5 11.4 76 2.3 SE 24 37 13 20 1019.1 1019.1 0.0
23/09:30am 15.2 10.6 11.2 77 2.1 SE 26 35 14 19 1019.5 1019.5 0.0
23/09:00am 15.2 11.1 11.6 79 1.9 SE 24 33 13 18 1019.6 1019.6 0.0
23/08:30am 14.6 11.5 11.7 83 1.6 SE 19 28 10 15 1019.6 1019.6 0.0
23/08:00am 14.5 10.8 11.5 82 1.6 SE 22 32 12 17 1019.5 1019.5 0.0
23/07:55am 14.4 10.2 11.2 81 1.7 SE 24 32 13 17 1019.5 1019.5 0.0
23/07:49am 14.3 10.2 11.3 82 1.6 SE 24 32 13 17 1019.5 1019.5 0.0
23/07:30am 14.2 10.8 11.4 83 1.5 SE 20 30 11 16 1019.6 1019.6 0.0
23/07:00am 14.1 10.8 11.6 85 1.3 SE 20 28 11 15 1019.5 1019.5 0.0
23/06:30am 13.9 10.9 11.8 87 1.1 SE 19 26 10 14 1019.3 1019.3 0.0
23/06:00am 14.4 10.3 11.6 83 1.5 SE 24 33 13 18 1019.2 1019.2 0.0
23/05:30am 14.1 10.3 11.1 82 1.6 SSE 22 30 12 16 1019.4 1019.4 0.0
23/05:00am 14.3 10.6 11.5 83 1.5 SSE 22 33 12 18 1019.4 1019.4 0.0
23/04:30am 14.4 11.2 11.9 85 1.3 SSE 20 30 11 16 1019.4 1019.4 0.0
23/04:00am 14.5 11.2 11.5 82 1.6 SE 20 30 11 16 1019.0 1019.0 0.0
23/03:30am 14.5 12.2 11.6 83 1.5 SSE 15 19 8 10 1019.5 1019.5 0.0
23/03:00am 14.6 11.5 11.7 83 1.6 SSE 19 28 10 15 1019.9 1019.9 0.0
23/02:30am 14.4 11.3 11.7 84 1.4 SSE 19 24 10 13 1019.9 1019.9 0.0
23/02:00am 14.4 10.4 11.9 85 1.3 S 24 30 13 16 1020.3 1020.3 0.0
23/01:30am 14.3 11.1 12.0 86 1.2 SSE 20 30 11 16 1020.7 1020.7 0.0
23/01:00am 14.3 11.1 11.8 85 1.3 SSE 20 32 11 17 1021.2 1021.2 0.0
23/12:30am 14.4 10.1 11.9 85 1.3 SSE 26 35 14 19 1021.3 1021.3 0.0
23/12:00am 14.3 9.9 11.6 84 1.4 SSE 26 35 14 19 1021.4 1021.4 0.0
 
Date/Time
CDT
Temp
°C
App
Temp
°C
Dew
Point
Rel
Hum
%
Delta-T
°C
Wind Press
QNH
hPa
Press
MSL
hPa
Rain
since 9 am
mm
Dir
 
Spd
km/h
Gust
km/h
Spd
kts
Gust
kts
22/11:30pm 14.4 10.4 11.9 85 1.3 SSE 24 35 13 19 1021.5 1021.5 0.0
22/11:00pm 14.3 10.4 12.2 87 1.1 SSE 24 35 13 19 1021.6 1021.6 0.0
22/10:30pm 14.3 10.4 12.0 86 1.2 SSE 24 39 13 21 1021.7 1021.7 0.0
22/10:00pm 14.3 10.0 12.0 86 1.2 SSE 26 35 14 19 1021.8 1021.8 0.0
22/09:30pm 14.2 9.4 11.7 85 1.3 SSE 28 39 15 21 1021.7 1021.7 0.0
22/09:00pm 14.4 11.2 11.9 85 1.3 SSE 20 28 11 15 1021.4 1021.4 0.0
22/08:30pm 14.6 10.6 11.9 84 1.5 SSE 24 33 13 18 1021.0 1021.0 0.0
22/08:00pm 14.7 9.9 11.8 83 1.6 SSE 28 35 15 19 1020.6 1020.6 0.0
22/07:30pm 15.0 10.3 12.1 83 1.6 S 28 39 15 21 1020.5 1020.5 0.0
22/07:00pm 15.5 10.8 12.1 80 1.9 S 28 39 15 21 1020.2 1020.2 0.0
22/06:45pm 15.6 9.9 11.8 78 2.1 S 33 43 18 23 1020.0 1020.0 0.0
22/06:30pm 16.0 10.4 12.0 77 2.2 S 33 41 18 22 1019.9 1019.9 0.0
22/06:00pm 17.0 11.4 12.1 73 2.7 S 33 46 18 25 1019.5 1019.5 0.0
22/05:30pm 17.3 11.9 12.2 72 2.8 S 32 41 17 22 1019.5 1019.5 0.0
22/05:00pm 17.4 12.2 12.7 74 2.6 S 32 39 17 21 1019.6 1019.6 0.0
22/04:30pm 18.1 12.8 13.0 72 2.9 S 33 41 18 22 1019.6 1019.6 0.0
22/04:00pm 18.4 13.2 13.3 72 2.9 S 33 41 18 22 1019.4 1019.4 0.0
22/03:30pm 18.3 12.5 12.7 70 3.1 S 35 43 19 23 1019.5 1019.5 0.0
22/03:00pm 20.1 14.5 13.3 65 3.9 S 35 46 19 25 1019.4 1019.4 0.0
22/02:30pm 19.7 15.0 13.2 66 3.7 S 30 37 16 20 1019.4 1019.4 0.0
22/02:00pm 19.7 14.7 13.4 67 3.6 S 32 41 17 22 1019.6 1019.6 0.0

Other Formats:

Comma delimited format used in spreadsheet applications
http://www.bom.gov.au/fwo/IDS60801/IDS60801.95807.axf

JavaScript Object Notation format (JSON) in row-major order
http://www.bom.gov.au/fwo/IDS60801/IDS60801.95807.json